Time;durP1;ratioP1;P1;durP2;ratioP2;P2;SDS_P1;SDS_P2;PMS_P1;PMS_P2;Temp;Humidity;BMP_temperature;BMP_pressure;BME280_temperature;BME280_humidity;BME280_pressure;Samples;Min_cycle;Max_cycle;Signal;HPM_P1;HPM_P2
2021/06/15 00:01:08;;;;;;;5.70;5.10;;;21.70;70.90;;;;;;5052206;28;20437;-50
2021/06/15 00:03:35;;;;;;;11.80;5.23;;;21.70;71.00;;;;;;5052086;28;20429;-49
2021/06/15 00:06:01;;;;;;;5.47;4.67;;;21.70;71.20;;;;;;5052029;28;20449;-49
2021/06/15 00:08:28;;;;;;;6.40;4.23;;;21.60;71.20;;;;;;5051778;28;20434;-49
2021/06/15 00:10:55;;;;;;;7.93;5.23;;;21.60;71.30;;;;;;5052054;28;20454;-49
2021/06/15 00:13:23;;;;;;;6.20;5.10;;;21.60;71.50;;;;;;5052162;28;20425;-49
2021/06/15 00:15:50;;;;;;;7.33;5.00;;;21.60;71.70;;;;;;5051847;28;20453;-49
2021/06/15 00:18:17;;;;;;;12.57;5.40;;;21.60;71.80;;;;;;5051508;28;20465;-49
2021/06/15 00:20:45;;;;;;;6.20;4.70;;;21.50;71.90;;;;;;5051618;28;20434;-48
2021/06/15 00:23:12;;;;;;;7.30;5.30;;;21.50;71.90;;;;;;5051736;28;20481;-49
2021/06/15 00:25:39;;;;;;;7.57;6.17;;;21.50;72.10;;;;;;5051559;28;20518;-49
2021/06/15 00:28:06;;;;;;;5.77;4.63;;;21.50;72.10;;;;;;5051312;28;20441;-49
2021/06/15 00:30:35;;;;;;;7.50;4.60;;;21.50;72.30;;;;;;5051765;28;20433;-47
2021/06/15 00:33:02;;;;;;;12.80;5.33;;;21.50;72.40;;;;;;5051637;28;20475;-49
2021/06/15 00:35:28;;;;;;;12.10;5.20;;;21.40;72.50;;;;;;5051486;28;20824;-50
2021/06/15 00:37:55;;;;;;;8.00;4.70;;;21.40;72.60;;;;;;5051378;28;20529;-49
2021/06/15 00:40:22;;;;;;;9.23;5.70;;;21.40;72.70;;;;;;5051029;28;20432;-49
2021/06/15 00:42:49;;;;;;;5.80;4.23;;;21.40;72.90;;;;;;5051455;28;20850;-48
2021/06/15 00:45:18;;;;;;;5.53;4.17;;;21.40;73.00;;;;;;5051367;28;20470;-49
2021/06/15 00:47:48;;;;;;;5.43;4.33;;;21.40;73.00;;;;;;5051286;28;20448;-48
2021/06/15 00:50:16;;;;;;;6.57;4.40;;;21.30;73.10;;;;;;5054051;28;20435;-48
2021/06/15 00:52:43;;;;;;;5.90;4.33;;;21.30;73.20;;;;;;5033336;28;20971;-48
2021/06/15 00:55:11;;;;;;;5.07;3.87;;;21.30;73.30;;;;;;5051227;28;20424;-49
2021/06/15 00:57:39;;;;;;;6.10;4.20;;;21.20;73.30;;;;;;5051093;28;20472;-49
2021/06/15 01:00:07;;;;;;;8.30;4.70;;;21.30;73.60;;;;;;5033025;28;20452;-49
2021/06/15 01:02:37;;;;;;;7.60;4.30;;;21.20;73.60;;;;;;5033118;28;20574;-48
2021/06/15 01:05:08;;;;;;;12.90;5.33;;;21.20;73.70;;;;;;5033550;28;20449;-47
2021/06/15 01:07:46;;;;;;;6.23;4.80;;;21.20;73.80;;;;;;5051516;28;20459;-47
2021/06/15 01:10:25;;;;;;;8.73;5.90;;;21.20;74.10;;;;;;5051292;28;20547;-49
2021/06/15 01:13:05;;;;;;;12.80;5.30;;;21.10;74.10;;;;;;5033640;28;20900;-48
2021/06/15 01:15:39;;;;;;;6.77;5.60;;;21.10;74.30;;;;;;5051340;28;20435;-48
2021/06/15 01:18:10;;;;;;;8.87;5.20;;;21.10;74.50;;;;;;5033268;28;20452;-48
2021/06/15 01:20:42;;;;;;;10.07;4.90;;;21.10;74.80;;;;;;5051377;28;20923;-48
2021/06/15 01:23:24;;;;;;;7.23;4.67;;;21.00;74.70;;;;;;5033481;28;21101;-48
2021/06/15 01:26:10;;;;;;;8.77;4.70;;;21.00;74.80;;;;;;5051381;28;20456;-48
2021/06/15 01:28:43;;;;;;;7.17;5.17;;;21.00;75.00;;;;;;5033510;28;20834;-49
2021/06/15 01:31:16;;;;;;;7.73;5.40;;;21.00;75.10;;;;;;5051321;28;20803;-49
2021/06/15 01:33:48;;;;;;;5.87;4.60;;;21.00;75.30;;;;;;5051659;28;20801;-49
2021/06/15 01:36:19;;;;;;;8.20;4.60;;;21.00;75.50;;;;;;5033486;28;20810;-50
2021/06/15 01:38:52;;;;;;;9.50;4.90;;;20.70;75.40;;;;;;5033143;28;20940;-49
2021/06/15 01:41:27;;;;;;;5.47;3.90;;;20.60;75.30;;;;;;5033728;28;20900;-50
2021/06/15 01:44:01;;;;;;;9.30;5.30;;;21.00;76.00;;;;;;5033500;28;20447;-49
2021/06/15 01:46:33;;;;;;;6.33;4.10;;;21.00;76.20;;;;;;5033384;28;20984;-49
2021/06/15 01:49:05;;;;;;;9.93;4.40;;;20.90;76.10;;;;;;5033073;28;20460;-50
2021/06/15 01:51:35;;;;;;;5.37;4.40;;;20.90;76.20;;;;;;5033368;28;20540;-50
2021/06/15 01:54:09;;;;;;;5.80;4.43;;;21.00;76.40;;;;;;5033251;28;20960;-49
2021/06/15 01:56:41;;;;;;;6.83;5.00;;;20.90;76.30;;;;;;5051189;28;20462;-49
2021/06/15 01:59:15;;;;;;;8.87;5.33;;;20.90;76.50;;;;;;5050822;28;20431;-50
2021/06/15 02:01:47;;;;;;;7.00;5.67;;;20.90;76.70;;;;;;5032727;28;20522;-50
2021/06/15 02:04:20;;;;;;;9.27;4.80;;;20.90;76.80;;;;;;5032347;28;20425;-50
2021/06/15 02:06:48;;;;;;;7.30;4.63;;;20.90;77.10;;;;;;5032914;28;20476;-49
2021/06/15 02:09:16;;;;;;;7.10;5.20;;;20.80;77.10;;;;;;5032757;28;20962;-49
2021/06/15 02:11:51;;;;;;;6.87;5.67;;;20.80;77.30;;;;;;5033095;28;20460;-49
2021/06/15 02:14:27;;;;;;;8.20;5.60;;;20.70;77.50;;;;;;5033186;28;21033;-49
2021/06/15 02:17:15;;;;;;;8.50;5.70;;;20.70;77.80;;;;;;5033228;28;20482;-48
2021/06/15 02:20:01;;;;;;;12.50;6.27;;;20.70;78.00;;;;;;5054891;28;20439;-49
2021/06/15 02:22:30;;;;;;;7.70;5.30;;;20.70;78.30;;;;;;5036583;28;20499;-49
2021/06/15 02:25:00;;;;;;;8.17;5.47;;;20.60;78.40;;;;;;5036737;28;20451;-48
2021/06/15 02:27:29;;;;;;;8.07;5.43;;;20.60;78.70;;;;;;5054459;28;20512;-48
2021/06/15 02:29:59;;;;;;;9.77;5.80;;;20.50;78.90;;;;;;5054117;28;20479;-48
2021/06/15 02:32:34;;;;;;;11.60;5.80;;;20.40;79.00;;;;;;5036546;28;20451;-49
2021/06/15 02:35:06;;;;;;;8.87;5.07;;;20.60;79.50;;;;;;5036435;28;20461;-49
2021/06/15 02:37:37;;;;;;;7.60;5.80;;;20.50;79.50;;;;;;5036428;28;20915;-49
2021/06/15 02:40:07;;;;;;;6.90;5.07;;;20.50;79.60;;;;;;5054028;28;20466;-48
2021/06/15 02:42:43;;;;;;;7.27;5.57;;;20.60;79.80;;;;;;5054076;28;20604;-47
2021/06/15 02:45:17;;;;;;;9.80;5.33;;;20.50;79.90;;;;;;5054192;28;20439;-48
2021/06/15 02:47:47;;;;;;;8.70;5.50;;;20.50;80.20;;;;;;5054221;28;20515;-49
2021/06/15 02:50:18;;;;;;;9.77;5.70;;;20.50;80.50;;;;;;5054098;28;20519;-49
2021/06/15 02:52:49;;;;;;;8.03;5.50;;;20.50;80.70;;;;;;5036194;28;20454;-50
2021/06/15 02:55:24;;;;;;;9.63;5.27;;;20.30;80.60;;;;;;5054059;28;20943;-50
2021/06/15 02:57:50;;;;;;;8.23;5.77;;;20.10;80.30;;;;;;5053868;28;20478;-50
2021/06/15 03:00:21;;;;;;;10.53;5.73;;;20.40;80.60;;;;;;5053752;28;20434;-50
2021/06/15 03:02:48;;;;;;;7.10;5.40;;;20.40;80.90;;;;;;5035943;28;20449;-50
2021/06/15 03:05:17;;;;;;;10.97;6.03;;;20.30;81.00;;;;;;5036034;28;20472;-50
2021/06/15 03:07:46;;;;;;;7.80;5.90;;;20.40;81.40;;;;;;5036041;28;20983;-48
2021/06/15 03:10:16;;;;;;;12.03;6.60;;;20.40;81.40;;;;;;5035499;28;20450;-49
2021/06/15 03:12:49;;;;;;;14.17;6.83;;;20.30;81.40;;;;;;5036273;28;20442;-49
2021/06/15 03:15:21;;;;;;;8.97;5.40;;;20.40;81.70;;;;;;5035782;28;20458;-50
2021/06/15 03:17:59;;;;;;;7.00;5.30;;;20.40;82.10;;;;;;5055383;28;20489;-50
2021/06/15 03:20:27;;;;;;;9.67;6.37;;;20.40;82.30;;;;;;5036223;28;20945;-48
2021/06/15 03:23:00;;;;;;;8.70;6.30;;;20.40;82.50;;;;;;5053637;28;20647;-47
2021/06/15 03:25:33;;;;;;;9.00;5.90;;;20.30;82.60;;;;;;5036023;28;20471;-47
2021/06/15 03:28:07;;;;;;;7.20;5.93;;;20.40;82.80;;;;;;5035640;28;20551;-48
2021/06/15 03:30:36;;;;;;;9.07;5.80;;;20.50;83.20;;;;;;5034632;28;20454;-47
2021/06/15 03:33:07;;;;;;;8.07;6.00;;;20.40;83.00;;;;;;5053641;28;20927;-47
2021/06/15 03:35:40;;;;;;;13.03;6.63;;;20.40;82.90;;;;;;5053618;28;20453;-46
2021/06/15 03:38:09;;;;;;;11.47;5.70;;;20.40;82.80;;;;;;5035217;28;20465;-48
2021/06/15 03:40:39;;;;;;;10.60;5.60;;;20.30;82.70;;;;;;5053339;28;20502;-48
2021/06/15 03:43:08;;;;;;;11.10;5.33;;;20.10;82.50;;;;;;5053576;28;20478;-47
2021/06/15 03:45:42;;;;;;;10.73;5.90;;;20.50;83.10;;;;;;5052792;28;20818;-48
2021/06/15 03:48:10;;;;;;;12.80;6.50;;;20.50;83.30;;;;;;5052839;28;20448;-48
2021/06/15 03:50:39;;;;;;;12.77;6.70;;;20.30;83.10;;;;;;5035024;28;20549;-48
2021/06/15 03:53:08;;;;;;;11.47;7.03;;;20.60;83.60;;;;;;5052757;28;20445;-47
2021/06/15 03:55:37;;;;;;;9.90;6.37;;;20.80;84.00;;;;;;5052638;28;20437;-47
2021/06/15 03:58:06;;;;;;;13.37;6.43;;;20.40;83.50;;;;;;5052554;28;20431;-47
2021/06/15 04:00:34;;;;;;;13.20;6.30;;;20.70;84.00;;;;;;5053096;28;21001;-47
2021/06/15 04:03:06;;;;;;;13.40;7.17;;;20.70;83.90;;;;;;5052519;28;20478;-48
2021/06/15 04:05:35;;;;;;;8.47;5.40;;;20.70;84.10;;;;;;5052866;28;20488;-47
2021/06/15 04:08:06;;;;;;;9.07;5.30;;;20.80;84.10;;;;;;5052825;28;20530;-47
2021/06/15 04:10:34;;;;;;;12.60;5.50;;;20.80;84.00;;;;;;5052464;28;20955;-49
2021/06/15 04:13:03;;;;;;;8.03;5.27;;;20.90;84.00;;;;;;5052446;28;20438;-48
2021/06/15 04:15:33;;;;;;;9.30;6.17;;;20.90;84.00;;;;;;5034507;28;20486;-47
2021/06/15 04:18:03;;;;;;;10.90;5.43;;;21.00;83.90;;;;;;5052166;28;20434;-49
2021/06/15 04:20:35;;;;;;;9.30;5.03;;;21.00;83.90;;;;;;5052184;28;20435;-48
2021/06/15 04:23:06;;;;;;;17.23;5.60;;;20.90;83.60;;;;;;5052158;28;20486;-48
2021/06/15 04:25:36;;;;;;;8.33;5.67;;;21.10;83.60;;;;;;5051953;28;20852;-48
2021/06/15 04:28:04;;;;;;;7.60;5.83;;;21.20;83.60;;;;;;5052005;28;20439;-48
2021/06/15 04:30:34;;;;;;;12.43;6.10;;;21.30;83.30;;;;;;5052166;28;20463;-48
2021/06/15 04:33:06;;;;;;;10.10;6.97;;;21.40;83.20;;;;;;5054191;28;20440;-47
2021/06/15 04:35:37;;;;;;;7.20;5.40;;;21.40;82.80;;;;;;5034031;28;20455;-47
2021/06/15 04:38:09;;;;;;;8.03;5.30;;;21.50;82.50;;;;;;5051818;28;20554;-48
2021/06/15 04:40:38;;;;;;;7.53;5.20;;;21.50;82.10;;;;;;5051754;28;20432;-48
2021/06/15 04:43:22;;;;;;;8.90;6.17;;;21.60;82.00;;;;;;5051719;28;20490;-47
2021/06/15 04:45:53;;;;;;;12.30;5.87;;;21.70;82.00;;;;;;5033777;28;20443;-47
2021/06/15 04:48:28;;;;;;;9.43;5.47;;;21.70;82.80;;;;;;5051448;28;20444;-47
2021/06/15 04:50:59;;;;;;;6.53;5.73;;;21.70;81.70;;;;;;5051953;28;20493;-47
2021/06/15 04:53:28;;;;;;;8.70;5.50;;;21.70;81.50;;;;;;5051854;28;20811;-49
2021/06/15 04:55:56;;;;;;;9.50;5.80;;;21.70;81.60;;;;;;5051828;28;20456;-50
2021/06/15 04:58:24;;;;;;;8.50;5.67;;;21.80;81.80;;;;;;5051265;28;20484;-49
2021/06/15 05:00:52;;;;;;;8.00;5.60;;;21.80;82.30;;;;;;5051379;28;20456;-49
2021/06/15 05:03:20;;;;;;;9.83;6.20;;;21.90;82.00;;;;;;5033544;28;20491;-49
2021/06/15 05:05:49;;;;;;;12.50;6.63;;;22.00;80.90;;;;;;5033364;28;20444;-50
2021/06/15 05:08:21;;;;;;;7.30;5.43;;;22.10;80.80;;;;;;5051046;28;20440;-51
2021/06/15 05:10:49;;;;;;;8.37;6.90;;;22.20;80.70;;;;;;5051542;28;20440;-51
2021/06/15 05:13:16;;;;;;;9.10;6.20;;;22.20;80.50;;;;;;5051158;28;20543;-49
2021/06/15 05:15:45;;;;;;;10.90;6.90;;;22.20;80.30;;;;;;5051012;28;20580;-50
2021/06/15 05:18:12;;;;;;;8.57;6.67;;;22.20;80.20;;;;;;5050685;28;20494;-49
2021/06/15 05:20:38;;;;;;;10.10;6.47;;;22.20;80.20;;;;;;5051371;28;20429;-49
2021/06/15 05:23:11;;;;;;;10.80;6.77;;;22.20;80.10;;;;;;5051487;28;20481;-50
2021/06/15 05:25:38;;;;;;;9.23;6.23;;;22.30;80.30;;;;;;5051305;28;20838;-50
2021/06/15 05:28:05;;;;;;;10.30;6.13;;;22.40;80.20;;;;;;5032705;28;20457;-48
2021/06/15 05:30:31;;;;;;;10.43;6.33;;;22.50;80.30;;;;;;5033089;28;20819;-51
2021/06/15 05:32:58;;;;;;;7.27;6.37;;;22.60;80.30;;;;;;5050307;28;20465;-50
2021/06/15 05:35:26;;;;;;;7.20;5.80;;;22.70;79.80;;;;;;5051104;28;20429;-52
2021/06/15 05:37:52;;;;;;;11.40;7.80;;;22.80;79.30;;;;;;5050371;28;20961;-51
2021/06/15 05:40:21;;;;;;;8.50;6.40;;;23.00;79.20;;;;;;5050463;28;20430;-50
2021/06/15 05:42:48;;;;;;;9.73;7.00;;;23.10;78.80;;;;;;5032672;28;20462;-50
2021/06/15 05:45:15;;;;;;;7.57;6.10;;;23.10;78.50;;;;;;5050197;28;20521;-52
2021/06/15 05:47:44;;;;;;;7.57;5.70;;;23.10;78.50;;;;;;5051385;28;20544;-50
2021/06/15 05:50:13;;;;;;;10.33;5.80;;;23.00;78.60;;;;;;5032553;28;21105;-49
2021/06/15 05:52:39;;;;;;;11.77;6.30;;;22.90;78.90;;;;;;5032856;28;20454;-49
2021/06/15 05:55:08;;;;;;;8.70;6.10;;;23.00;79.10;;;;;;5054510;28;20841;-50
2021/06/15 05:57:36;;;;;;;9.83;5.80;;;22.90;79.00;;;;;;5054147;28;20531;-50
2021/06/15 06:00:04;;;;;;;7.83;6.50;;;22.80;79.10;;;;;;5054010;28;20438;-50
2021/06/15 06:02:40;;;;;;;8.80;6.50;;;22.80;79.50;;;;;;5054510;28;20465;-49
2021/06/15 06:08:09;;;;;;;6.90;5.87;;;22.80;80.80;;;;;;5032980;28;21008;-51
2021/06/15 06:10:39;;;;;;;8.47;6.13;;;22.90;80.00;;;;;;5054355;28;20441;-51
2021/06/15 06:13:11;;;;;;;8.77;6.90;;;23.00;79.50;;;;;;5054355;28;20817;-51
2021/06/15 06:15:39;;;;;;;10.70;6.73;;;23.10;79.50;;;;;;5054297;28;20430;-52
2021/06/15 06:18:09;;;;;;;11.97;6.63;;;23.10;79.30;;;;;;5054138;28;20785;-50
2021/06/15 06:20:37;;;;;;;10.33;6.30;;;23.20;79.40;;;;;;5054592;28;20463;-50
2021/06/15 06:23:05;;;;;;;16.67;6.37;;;23.10;79.50;;;;;;5054149;28;20529;-50
2021/06/15 06:25:32;;;;;;;9.03;6.93;;;23.10;79.50;;;;;;5054282;28;20472;-49
2021/06/15 06:27:58;;;;;;;10.53;6.93;;;23.20;79.20;;;;;;5053792;28;20477;-51
2021/06/15 06:30:26;;;;;;;15.23;7.50;;;23.30;79.20;;;;;;5053510;28;20430;-50
2021/06/15 06:32:53;;;;;;;10.80;6.90;;;23.40;79.00;;;;;;5053980;28;20436;-51
2021/06/15 06:35:20;;;;;;;13.43;7.20;;;23.40;78.60;;;;;;5053749;28;20528;-50
2021/06/15 06:37:47;;;;;;;13.40;7.07;;;23.50;78.30;;;;;;5053501;28;20541;-51
2021/06/15 06:40:15;;;;;;;10.17;6.23;;;23.70;78.20;;;;;;5053501;28;20435;-51
2021/06/15 06:42:42;;;;;;;10.23;6.47;;;23.80;78.10;;;;;;5053477;28;20453;-51
2021/06/15 06:45:13;;;;;;;6.80;6.20;;;23.80;77.70;;;;;;5053379;28;20484;-50
2021/06/15 06:47:44;;;;;;;8.77;6.33;;;23.90;77.60;;;;;;5053753;28;20452;-52
2021/06/15 06:50:11;;;;;;;10.63;7.27;;;23.90;77.70;;;;;;5052559;28;21022;-50
2021/06/15 06:52:38;;;;;;;7.10;6.40;;;23.90;77.80;;;;;;5053291;28;20688;-53
2021/06/15 06:55:11;;;;;;;10.10;7.13;;;24.00;77.80;;;;;;5053830;28;20917;-50
2021/06/15 06:57:39;;;;;;;7.97;6.83;;;23.90;78.00;;;;;;5053174;28;20523;-50
2021/06/15 07:00:13;;;;;;;7.70;6.17;;;23.90;78.20;;;;;;5053375;28;20537;-50
2021/06/15 07:02:42;;;;;;;8.80;7.67;;;23.90;78.40;;;;;;5054637;28;20440;-50
2021/06/15 07:05:14;;;;;;;11.73;7.60;;;24.00;78.80;;;;;;5054581;28;21210;-50
2021/06/15 07:07:41;;;;;;;15.60;7.50;;;24.00;78.70;;;;;;5052804;28;20478;-51
2021/06/15 07:10:09;;;;;;;10.70;7.03;;;24.10;78.60;;;;;;5052858;28;20444;-51
2021/06/15 07:12:36;;;;;;;11.60;7.70;;;24.10;78.50;;;;;;5052952;28;20488;-52
2021/06/15 07:15:08;;;;;;;8.60;6.63;;;24.30;78.40;;;;;;5053444;28;20513;-50
2021/06/15 07:17:35;;;;;;;7.80;7.00;;;24.30;78.50;;;;;;5053420;28;20489;-50
2021/06/15 07:20:04;;;;;;;10.20;6.80;;;24.40;78.80;;;;;;5052446;28;20627;-51
2021/06/15 07:22:31;;;;;;;11.63;8.30;;;24.40;78.70;;;;;;5053061;28;20458;-51
2021/06/15 07:24:58;;;;;;;11.50;6.00;;;24.40;78.70;;;;;;5052984;28;20478;-51
2021/06/15 07:27:25;;;;;;;9.10;6.00;;;24.40;78.40;;;;;;5053358;28;20484;-51
2021/06/15 07:29:51;;;;;;;10.87;7.77;;;24.50;78.50;;;;;;5052506;28;20438;-50
2021/06/15 07:32:19;;;;;;;12.30;7.80;;;24.50;78.40;;;;;;5052695;28;20460;-51
2021/06/15 07:34:45;;;;;;;9.67;7.10;;;24.40;78.20;;;;;;5052811;28;20437;-50
2021/06/15 07:37:14;;;;;;;9.63;7.17;;;24.40;78.10;;;;;;5053051;28;20953;-50
2021/06/15 07:39:41;;;;;;;9.87;6.83;;;24.30;78.30;;;;;;5052458;28;20489;-51
2021/06/15 07:42:08;;;;;;;10.60;7.10;;;24.40;78.40;;;;;;5034653;28;20438;-50
2021/06/15 07:44:35;;;;;;;9.70;6.73;;;24.50;78.70;;;;;;5052942;28;20477;-51
2021/06/15 07:47:02;;;;;;;12.43;6.23;;;24.50;78.50;;;;;;5053105;28;20456;-51
2021/06/15 07:49:30;;;;;;;8.47;6.47;;;24.50;78.20;;;;;;5051823;28;20445;-51
2021/06/15 07:51:57;;;;;;;9.67;6.30;;;24.50;78.30;;;;;;5034457;28;20950;-51
2021/06/15 07:54:25;;;;;;;12.43;8.10;;;24.50;78.30;;;;;;5052503;28;20449;-60
2021/06/15 07:56:52;;;;;;;8.83;6.90;;;24.70;78.10;;;;;;5052342;28;20468;-50
2021/06/15 07:59:19;;;;;;;8.40;6.30;;;24.80;78.10;;;;;;5051749;28;20549;-51
2021/06/15 08:01:45;;;;;;;8.30;6.93;;;24.90;77.50;;;;;;5052031;28;20892;-51
2021/06/15 08:04:15;;;;;;;9.53;6.23;;;25.00;77.40;;;;;;5051281;28;20469;-51
2021/06/15 08:06:42;;;;;;;6.67;5.97;;;25.20;77.20;;;;;;5052451;28;20455;-51
2021/06/15 08:09:09;;;;;;;11.07;6.73;;;25.30;77.10;;;;;;5034169;28;20489;-51
2021/06/15 08:11:37;;;;;;;7.47;6.70;;;25.30;76.30;;;;;;5052299;28;20814;-50
2021/06/15 08:14:03;;;;;;;8.80;6.70;;;25.30;75.90;;;;;;5052254;28;20439;-50
2021/06/15 08:16:30;;;;;;;10.40;6.73;;;25.20;76.00;;;;;;5051197;28;20990;-50
2021/06/15 08:18:57;;;;;;;9.17;6.60;;;25.20;76.00;;;;;;5054185;28;20433;-50
2021/06/15 08:21:23;;;;;;;14.63;6.70;;;25.10;75.80;;;;;;5052068;28;20434;-51
2021/06/15 08:23:50;;;;;;;7.43;5.97;;;25.20;75.80;;;;;;5051805;28;20469;-49
2021/06/15 08:26:17;;;;;;;14.53;6.80;;;25.20;75.90;;;;;;5051964;28;20978;-50
2021/06/15 08:28:45;;;;;;;9.37;6.27;;;25.10;76.10;;;;;;5051730;28;20530;-50
2021/06/15 08:31:12;;;;;;;11.57;6.40;;;25.00;76.80;;;;;;5051737;28;20530;-50
2021/06/15 08:33:38;;;;;;;10.20;7.17;;;24.90;78.10;;;;;;5051839;28;20816;-50
2021/06/15 08:36:05;;;;;;;8.93;5.77;;;24.80;77.40;;;;;;5051732;28;20454;-51
2021/06/15 08:38:32;;;;;;;9.87;6.83;;;24.80;77.70;;;;;;5051391;28;21025;-50
2021/06/15 08:40:59;;;;;;;17.27;6.73;;;24.80;78.00;;;;;;5051858;28;20450;-51
2021/06/15 08:43:25;;;;;;;12.67;6.70;;;24.90;78.20;;;;;;5051783;28;20429;-51
2021/06/15 08:45:53;;;;;;;8.23;6.43;;;24.80;78.40;;;;;;5051622;28;20526;-51
2021/06/15 08:48:21;;;;;;;8.67;7.00;;;24.90;78.50;;;;;;5051003;28;20462;-51
2021/06/15 08:50:48;;;;;;;15.97;5.80;;;25.00;78.60;;;;;;5051522;28;20510;-50
2021/06/15 08:53:15;;;;;;;7.70;6.17;;;25.00;78.50;;;;;;5051618;28;20430;-51
2021/06/15 08:55:48;;;;;;;8.80;6.80;;;25.00;78.60;;;;;;5033382;28;20541;-50
2021/06/15 08:58:39;;;;;;;6.50;5.83;;;25.00;78.80;;;;;;5051087;28;20512;-50
2021/06/15 09:01:11;;;;;;;8.50;5.93;;;25.00;78.60;;;;;;5051502;28;20445;-50
2021/06/15 09:03:38;;;;;;;11.53;6.07;;;25.10;78.70;;;;;;5051618;28;20438;-50
2021/06/15 09:06:05;;;;;;;11.83;5.73;;;25.30;78.40;;;;;;5051436;28;20562;-51
2021/06/15 09:08:32;;;;;;;8.10;6.27;;;25.50;78.20;;;;;;5050985;28;20428;-52
2021/06/15 09:11:05;;;;;;;9.40;5.50;;;25.50;77.70;;;;;;5051265;28;20526;-51
2021/06/15 09:13:36;;;;;;;7.30;5.23;;;25.50;77.50;;;;;;5033112;28;20482;-50
2021/06/15 09:16:20;;;;;;;6.83;5.50;;;25.40;77.70;;;;;;5051142;28;20921;-51
2021/06/15 09:18:47;;;;;;;8.40;6.40;;;25.30;77.70;;;;;;5050569;28;20517;-51
2021/06/15 09:21:38;;;;;;;7.13;6.17;;;25.30;77.50;;;;;;5051297;28;21001;-49
2021/06/15 09:24:05;;;;;;;6.03;5.33;;;25.30;77.20;;;;;;5051210;28;20438;-50
2021/06/15 09:27:00;;;;;;;7.80;5.17;;;25.20;76.70;;;;;;5050996;28;20508;-51
2021/06/15 09:29:41;;;;;;;8.23;5.37;;;25.20;77.00;;;;;;5054094;28;20945;-51
2021/06/15 09:32:10;;;;;;;9.60;5.33;;;25.20;77.60;;;;;;5054951;28;20542;-50
2021/06/15 09:34:45;;;;;;;5.53;5.00;;;25.20;77.20;;;;;;5056306;28;20896;-51
2021/06/15 09:37:12;;;;;;;8.50;5.37;;;25.30;77.30;;;;;;5055125;28;20458;-50
2021/06/15 09:39:38;;;;;;;6.27;5.00;;;25.30;77.60;;;;;;5054808;28;20423;-51
2021/06/15 09:42:10;;;;;;;7.63;5.83;;;25.40;77.70;;;;;;5054896;28;20452;-50
2021/06/15 09:44:37;;;;;;;7.20;5.00;;;25.40;78.10;;;;;;5054984;28;20805;-51
2021/06/15 09:47:06;;;;;;;9.43;5.30;;;25.50;78.20;;;;;;5054588;28;20462;-50
2021/06/15 09:49:37;;;;;;;9.80;4.93;;;25.50;78.10;;;;;;5054436;28;20529;-51
2021/06/15 09:52:16;;;;;;;6.97;5.60;;;25.50;78.50;;;;;;5054990;28;20430;-52
2021/06/15 09:54:44;;;;;;;7.73;5.83;;;25.50;78.00;;;;;;5054919;28;20427;-50
2021/06/15 09:57:13;;;;;;;5.83;5.20;;;25.30;78.50;;;;;;5036575;28;20553;-51
2021/06/15 10:00:10;;;;;;;6.10;5.50;;;25.50;78.30;;;;;;5054305;28;20580;-51
2021/06/15 10:02:50;;;;;;;7.30;6.60;;;25.50;78.70;;;;;;5054660;28;20462;-50
2021/06/15 10:05:24;;;;;;;7.80;5.80;;;25.50;79.00;;;;;;5054686;28;20477;-50
2021/06/15 10:07:51;;;;;;;7.10;6.40;;;25.70;80.10;;;;;;5054570;28;20466;-50
2021/06/15 10:10:19;;;;;;;8.43;6.20;;;25.60;79.20;;;;;;5054075;28;20866;-50
2021/06/15 10:12:47;;;;;;;9.67;5.70;;;25.50;79.60;;;;;;5053610;28;20541;-51
2021/06/15 10:15:15;;;;;;;8.17;6.23;;;25.50;79.50;;;;;;5054221;28;20434;-51
2021/06/15 10:17:46;;;;;;;14.07;6.13;;;25.50;79.40;;;;;;5053944;28;20537;-52
2021/06/15 10:20:16;;;;;;;7.57;5.83;;;25.60;79.60;;;;;;5054114;28;20431;-51
2021/06/15 10:22:45;;;;;;;6.30;5.70;;;25.70;79.20;;;;;;5054181;28;20433;-50
2021/06/15 10:25:13;;;;;;;6.17;5.33;;;25.70;79.10;;;;;;5054260;28;20487;-51
2021/06/15 10:27:41;;;;;;;6.73;6.03;;;25.70;80.10;;;;;;5053602;28;20453;-51
2021/06/15 10:30:09;;;;;;;8.60;6.63;;;25.60;79.00;;;;;;5053560;28;20537;-51
2021/06/15 10:32:49;;;;;;;6.93;6.33;;;25.70;78.50;;;;;;5053951;28;20426;-51
2021/06/15 10:35:33;;;;;;;16.73;6.10;;;25.60;78.50;;;;;;5054619;28;20836;-50
2021/06/15 10:38:02;;;;;;;7.53;6.73;;;25.50;78.50;;;;;;5053666;28;20825;-50
2021/06/15 10:40:40;;;;;;;7.00;5.80;;;25.30;79.30;;;;;;5053570;28;20431;-51
2021/06/15 10:43:17;;;;;;;9.20;7.10;;;25.30;79.60;;;;;;5053726;28;20522;-51
2021/06/15 10:45:45;;;;;;;9.50;6.53;;;25.20;79.90;;;;;;5053588;28;20489;-50
2021/06/15 10:48:43;;;;;;;8.00;6.60;;;25.20;80.20;;;;;;5054500;28;20434;-50
2021/06/15 10:51:24;;;;;;;8.87;6.30;;;25.30;80.90;;;;;;5053276;28;20431;-51
2021/06/15 10:53:53;;;;;;;11.23;6.07;;;25.40;80.70;;;;;;5054025;28;20488;-50
2021/06/15 10:56:23;;;;;;;8.13;7.23;;;25.40;80.70;;;;;;5069960;22;20449;-53
2021/06/15 10:59:07;;;;;;;6.93;6.20;;;25.50;80.30;;;;;;5072602;28;20433;-53
2021/06/15 11:01:35;;;;;;;7.23;6.63;;;25.50;80.60;;;;;;5072824;28;20427;-53
2021/06/15 11:04:04;;;;;;;13.30;8.37;;;25.60;80.50;;;;;;5071558;28;20988;-53
2021/06/15 11:06:52;;;;;;;11.10;7.47;;;25.60;79.80;;;;;;5053881;28;20581;-53
2021/06/15 11:09:27;;;;;;;20.60;8.30;;;25.70;80.10;;;;;;5072324;28;20429;-52
2021/06/15 11:12:19;;;;;;;19.80;8.43;;;25.70;80.10;;;;;;5072815;28;20418;-52
2021/06/15 11:15:11;;;;;;;11.00;8.50;;;25.80;80.10;;;;;;5072861;28;20828;-52
2021/06/15 11:17:53;;;;;;;13.20;8.43;;;25.90;80.00;;;;;;5063157;28;20895;-53
2021/06/15 11:20:31;;;;;;;13.33;7.07;;;25.90;79.70;;;;;;5053608;28;20446;-53
2021/06/15 11:23:12;;;;;;;9.20;8.00;;;25.90;79.80;;;;;;5071294;28;20612;-53
2021/06/15 11:25:47;;;;;;;12.50;7.80;;;25.90;79.70;;;;;;5071909;28;20775;-53
2021/06/15 11:28:36;;;;;;;7.90;6.70;;;25.80;79.40;;;;;;5070974;28;20456;-53
2021/06/15 11:31:31;;;;;;;8.30;7.00;;;25.80;78.90;;;;;;5053551;28;20626;-53
2021/06/15 11:34:17;;;;;;;7.23;6.50;;;25.80;79.30;;;;;;5053742;28;20454;-54
2021/06/15 11:36:51;;;;;;;12.73;7.53;;;25.70;80.30;;;;;;5072454;28;20875;-54
2021/06/15 11:39:29;;;;;;;10.73;7.60;;;25.80;80.30;;;;;;5071546;28;20477;-54
2021/06/15 11:42:19;;;;;;;7.80;7.00;;;25.60;80.40;;;;;;5071878;28;20441;-53
2021/06/15 11:44:52;;;;;;;7.97;7.17;;;25.60;80.40;;;;;;5071856;28;20529;-53
2021/06/15 11:47:45;;;;;;;8.40;7.50;;;25.50;80.50;;;;;;5072143;28;20434;-53
2021/06/15 11:50:27;;;;;;;11.93;7.37;;;25.50;81.00;;;;;;5070676;28;20483;-53
2021/06/15 11:53:00;;;;;;;9.03;7.20;;;25.50;81.20;;;;;;5071624;28;20946;-53
2021/06/15 11:55:31;;;;;;;10.30;7.67;;;25.50;81.50;;;;;;5053585;28;21043;-53
2021/06/15 11:58:01;;;;;;;11.43;7.47;;;25.50;81.40;;;;;;5070948;28;20464;-53
2021/06/15 12:00:30;;;;;;;8.60;7.53;;;25.50;81.50;;;;;;5071046;28;20516;-53
2021/06/15 12:03:04;;;;;;;8.87;8.07;;;25.50;81.40;;;;;;5071026;28;20444;-53
2021/06/15 12:05:31;;;;;;;7.90;6.43;;;25.60;81.80;;;;;;5072266;28;20469;-53
2021/06/15 12:07:58;;;;;;;9.20;7.90;;;25.60;81.60;;;;;;5072523;28;20448;-54
2021/06/15 12:10:27;;;;;;;11.40;7.67;;;25.50;81.40;;;;;;5071762;28;20471;-54
2021/06/15 12:12:58;;;;;;;8.87;6.70;;;25.50;80.80;;;;;;5071982;28;20881;-54
2021/06/15 12:15:28;;;;;;;7.83;7.03;;;25.60;80.50;;;;;;5071759;28;20516;-52
2021/06/15 12:17:55;;;;;;;10.07;7.63;;;25.60;80.30;;;;;;5072903;28;20453;-54
2021/06/15 12:20:24;;;;;;;11.63;7.63;;;25.60;80.40;;;;;;5071876;28;20441;-55
2021/06/15 12:22:51;;;;;;;9.77;7.33;;;25.60;80.10;;;;;;5070634;28;20516;-56
2021/06/15 12:25:19;;;;;;;7.60;6.63;;;25.60;79.30;;;;;;5070217;28;20995;-53
2021/06/15 12:27:46;;;;;;;11.43;7.03;;;25.60;79.10;;;;;;5070036;28;20462;-55
2021/06/15 12:30:14;;;;;;;9.33;6.80;;;25.70;79.00;;;;;;5070078;28;20536;-55
2021/06/15 12:32:46;;;;;;;9.83;6.60;;;25.70;79.30;;;;;;5070404;28;20549;-58
2021/06/15 12:35:18;;;;;;;7.53;6.67;;;25.70;78.90;;;;;;5070239;28;20460;-56
2021/06/15 12:37:45;;;;;;;10.10;6.50;;;25.80;78.60;;;;;;5070731;28;20508;-56
2021/06/15 12:40:13;;;;;;;10.40;6.80;;;25.80;78.90;;;;;;5070464;28;20471;-55
2021/06/15 12:42:40;;;;;;;6.93;6.33;;;25.80;78.60;;;;;;5071087;28;20433;-55
2021/06/15 12:45:08;;;;;;;7.50;6.27;;;25.80;77.70;;;;;;5070146;28;20445;-56
2021/06/15 12:47:43;;;;;;;12.90;6.57;;;25.90;77.60;;;;;;5070087;28;20445;-56
2021/06/15 12:50:21;;;;;;;7.53;5.90;;;25.80;77.50;;;;;;5069835;28;20440;-55
2021/06/15 12:52:49;;;;;;;7.73;6.70;;;25.90;77.50;;;;;;5070568;28;20785;-55
2021/06/15 12:55:18;;;;;;;12.83;7.30;;;26.00;77.30;;;;;;5070087;28;20433;-56
2021/06/15 12:58:01;;;;;;;8.30;6.03;;;26.00;76.70;;;;;;5070150;28;20461;-56
2021/06/15 13:00:28;;;;;;;8.17;6.73;;;25.90;74.80;;;;;;5070387;28;20430;-56
2021/06/15 13:03:06;;;;;;;7.40;6.60;;;25.90;74.60;;;;;;5071020;28;20433;-55
2021/06/15 13:05:34;;;;;;;9.90;7.20;;;25.80;74.90;;;;;;5069824;28;20949;-56